Time;durP1;ratioP1;P1;durP2;ratioP2;P2;SDS_P1;SDS_P2;PMS_P1;PMS_P2;Temp;Humidity;BMP_temperature;BMP_pressure;BME280_temperature;BME280_humidity;BME280_pressure;Samples;Min_cycle;Max_cycle;Signal;HPM_P1;HPM_P2
2024/02/08 00:00:41;;;;;;;24.80;15.20;;;;;;;;;;5063846;28;20461;-66
2024/02/08 00:03:10;;;;;;;24.10;15.77;;;;;;;;;;5074010;28;20468;-67
2024/02/08 00:05:37;;;;;;;18.70;14.50;;;;;;;;;;5067747;28;20460;-63
2024/02/08 00:08:04;;;;;;;22.97;14.27;;;;;;;;;;5070644;28;20448;-65
2024/02/08 00:10:32;;;;;;;25.27;14.10;;;;;;;;;;5073852;28;20451;-67
2024/02/08 00:12:58;;;;;;;23.07;13.50;;;;;;;;;;5072897;28;20486;-66
2024/02/08 00:15:29;;;;;;;20.07;12.80;;;;;;;;;;5079056;28;20449;-66
2024/02/08 00:17:56;;;;;;;23.93;13.80;;;;;;;;;;5068868;28;20450;-63
2024/02/08 00:20:23;;;;;;;18.20;12.87;;;;;;;;;;5074679;28;20515;-64
2024/02/08 00:22:52;;;;;;;15.43;13.37;;;;;;;;;;5072693;28;20448;-65
2024/02/08 00:25:18;;;;;;;15.03;11.67;;;;;;;;;;5078164;28;20990;-66
2024/02/08 00:27:47;;;;;;;22.70;13.97;;;;;;;;;;5085793;28;20475;-64
2024/02/08 00:30:15;;;;;;;15.90;13.50;;;;;;;;;;5080970;28;20467;-67
2024/02/08 00:32:46;;;;;;;22.87;12.73;;;;;;;;;;5079493;28;20491;-64
2024/02/08 00:35:12;;;;;;;18.27;12.63;;;;;;;;;;5073053;28;20461;-64
2024/02/08 00:37:39;;;;;;;17.03;13.10;;;;;;;;;;5072347;28;20487;-65
2024/02/08 00:40:06;;;;;;;16.57;12.23;;;;;;;;;;5072920;28;20511;-65
2024/02/08 00:42:34;;;;;;;17.27;13.20;;;;;;;;;;5086698;28;20467;-65
2024/02/08 00:45:02;;;;;;;18.67;12.13;;;;;;;;;;5087163;28;20451;-68
2024/02/08 00:47:28;;;;;;;20.40;13.30;;;;;;;;;;5075772;28;20452;-66
2024/02/08 00:49:56;;;;;;;19.50;12.27;;;;;;;;;;5074544;28;20464;-66
2024/02/08 00:52:22;;;;;;;19.77;12.63;;;;;;;;;;5082920;28;20482;-62
2024/02/08 00:54:50;;;;;;;18.83;12.77;;;;;;;;;;5079654;28;20455;-65
2024/02/08 00:57:16;;;;;;;17.20;12.53;;;;;;;;;;5093992;28;20451;-66
2024/02/08 00:59:43;;;;;;;19.50;11.93;;;;;;;;;;5073282;28;20449;-63
2024/02/08 01:02:11;;;;;;;17.17;12.03;;;;;;;;;;5079947;28;20478;-63
2024/02/08 01:04:37;;;;;;;18.90;11.67;;;;;;;;;;5075186;28;20473;-65
2024/02/08 01:07:04;;;;;;;16.00;11.67;;;;;;;;;;5083889;28;20475;-64
2024/02/08 01:09:30;;;;;;;16.40;12.00;;;;;;;;;;5082062;28;20445;-63
2024/02/08 01:11:57;;;;;;;23.57;13.43;;;;;;;;;;5076888;28;20483;-66
2024/02/08 01:14:23;;;;;;;14.63;12.13;;;;;;;;;;5072468;28;20473;-65
2024/02/08 01:16:51;;;;;;;22.40;11.90;;;;;;;;;;5079895;28;20452;-65
2024/02/08 01:19:22;;;;;;;15.13;10.83;;;;;;;;;;5075007;28;20540;-64
2024/02/08 01:21:48;;;;;;;17.50;12.20;;;;;;;;;;5075367;28;20460;-65
2024/02/08 01:24:18;;;;;;;20.43;13.17;;;;;;;;;;5081254;28;20474;-65
2024/02/08 01:26:44;;;;;;;19.73;12.87;;;;;;;;;;5082348;28;20524;-63
2024/02/08 01:29:11;;;;;;;16.60;11.10;;;;;;;;;;5075334;28;20475;-65
2024/02/08 01:31:38;;;;;;;15.03;12.50;;;;;;;;;;5079756;28;20490;-66
2024/02/08 01:34:05;;;;;;;19.80;11.90;;;;;;;;;;5069242;28;20562;-66
2024/02/08 01:36:33;;;;;;;15.93;11.03;;;;;;;;;;5081999;28;20460;-66
2024/02/08 01:39:00;;;;;;;16.80;12.63;;;;;;;;;;5090654;27;20513;-66
2024/02/08 01:41:27;;;;;;;15.47;12.93;;;;;;;;;;5121726;27;20465;-66
2024/02/08 01:43:55;;;;;;;15.03;12.80;;;;;;;;;;5112815;27;21000;-67
2024/02/08 01:46:22;;;;;;;23.53;11.57;;;;;;;;;;5117251;27;20482;-65
2024/02/08 01:48:49;;;;;;;20.33;12.40;;;;;;;;;;5112843;27;20450;-66
2024/02/08 01:51:16;;;;;;;22.90;13.00;;;;;;;;;;5109716;27;20475;-66
2024/02/08 01:53:44;;;;;;;16.80;11.30;;;;;;;;;;5122482;27;20485;-63
2024/02/08 01:56:11;;;;;;;15.13;12.53;;;;;;;;;;5113513;27;20476;-65
2024/02/08 01:58:41;;;;;;;17.37;13.10;;;;;;;;;;5120839;27;20850;-64
2024/02/08 02:01:09;;;;;;;24.97;12.90;;;;;;;;;;5117336;27;20453;-63
2024/02/08 02:03:35;;;;;;;18.33;13.43;;;;;;;;;;5119874;27;20486;-66
2024/02/08 02:06:07;;;;;;;16.37;13.17;;;;;;;;;;5116133;28;20474;-66
2024/02/08 02:08:34;;;;;;;14.47;12.27;;;;;;;;;;5107840;28;20455;-64
2024/02/08 02:11:10;;;;;;;19.93;13.73;;;;;;;;;;5117829;28;20504;-62
2024/02/08 02:13:38;;;;;;;14.20;12.63;;;;;;;;;;5104680;28;20518;-65
2024/02/08 02:16:05;;;;;;;20.23;12.87;;;;;;;;;;5107533;28;20472;-66
2024/02/08 02:18:33;;;;;;;16.30;13.40;;;;;;;;;;5111924;28;20931;-66
2024/02/08 02:21:01;;;;;;;15.20;12.93;;;;;;;;;;5116248;28;20454;-67
2024/02/08 02:23:29;;;;;;;17.13;12.67;;;;;;;;;;5115917;27;20440;-66
2024/02/08 02:25:56;;;;;;;17.87;12.90;;;;;;;;;;5105335;27;20513;-64
2024/02/08 02:28:22;;;;;;;18.10;12.83;;;;;;;;;;5112799;27;20473;-66
2024/02/08 02:30:50;;;;;;;18.63;14.40;;;;;;;;;;5103902;27;20474;-64
2024/02/08 02:33:16;;;;;;;18.57;12.70;;;;;;;;;;5111932;28;20939;-65
2024/02/08 02:35:48;;;;;;;25.50;13.77;;;;;;;;;;5121452;27;20465;-66
2024/02/08 02:38:14;;;;;;;19.30;13.03;;;;;;;;;;5112411;27;20474;-65
2024/02/08 02:40:42;;;;;;;28.43;13.60;;;;;;;;;;5107924;27;20480;-64
2024/02/08 02:43:10;;;;;;;15.67;12.33;;;;;;;;;;5121240;27;20469;-62
2024/02/08 02:45:36;;;;;;;29.77;17.20;;;;;;;;;;5122717;27;20467;-64
2024/02/08 02:48:03;;;;;;;14.63;12.00;;;;;;;;;;5123008;27;20481;-62
2024/02/08 02:50:32;;;;;;;17.03;13.20;;;;;;;;;;5110843;27;20449;-63
2024/02/08 02:52:59;;;;;;;16.43;13.07;;;;;;;;;;5114624;27;20446;-64
2024/02/08 02:55:25;;;;;;;18.30;12.43;;;;;;;;;;5122515;27;20469;-65
2024/02/08 02:57:57;;;;;;;18.00;12.90;;;;;;;;;;5109213;27;20460;-62
2024/02/08 03:00:24;;;;;;;19.87;13.33;;;;;;;;;;5112287;27;20454;-67
2024/02/08 03:02:51;;;;;;;19.53;11.30;;;;;;;;;;5122021;27;20501;-67
2024/02/08 03:05:20;;;;;;;21.00;13.30;;;;;;;;;;5106336;27;20439;-65
2024/02/08 03:07:48;;;;;;;21.33;12.47;;;;;;;;;;5113397;27;20458;-67
2024/02/08 03:10:14;;;;;;;17.97;11.80;;;;;;;;;;5115873;27;21002;-64
2024/02/08 03:12:41;;;;;;;23.07;14.20;;;;;;;;;;5123832;27;20451;-67
2024/02/08 03:15:10;;;;;;;25.20;13.87;;;;;;;;;;5125803;27;20474;-65
2024/02/08 03:17:39;;;;;;;19.23;13.07;;;;;;;;;;5115720;27;20462;-63
2024/02/08 03:20:08;;;;;;;23.30;13.60;;;;;;;;;;5127086;27;20520;-63
2024/02/08 03:22:35;;;;;;;17.70;13.33;;;;;;;;;;5104061;28;20451;-65
2024/02/08 03:25:04;;;;;;;23.27;13.00;;;;;;;;;;5117621;28;20453;-65
2024/02/08 03:27:32;;;;;;;25.73;14.50;;;;;;;;;;5105977;28;20459;-67
2024/02/08 03:29:58;;;;;;;20.33;14.23;;;;;;;;;;5109598;28;20450;-66
2024/02/08 03:32:27;;;;;;;16.23;12.40;;;;;;;;;;5110052;28;20454;-65
2024/02/08 03:34:54;;;;;;;24.33;13.37;;;;;;;;;;5114883;28;20475;-66
2024/02/08 03:37:21;;;;;;;20.03;13.43;;;;;;;;;;5112023;28;20905;-64
2024/02/08 03:39:48;;;;;;;20.70;13.67;;;;;;;;;;5116324;28;20473;-65
2024/02/08 03:42:16;;;;;;;21.03;13.40;;;;;;;;;;5112299;28;20456;-65
2024/02/08 03:44:43;;;;;;;16.60;12.57;;;;;;;;;;5113941;28;20442;-66
2024/02/08 03:47:09;;;;;;;21.50;14.00;;;;;;;;;;5103450;28;20485;-65
2024/02/08 03:49:37;;;;;;;23.03;13.77;;;;;;;;;;5118434;28;20456;-65
2024/02/08 03:52:04;;;;;;;18.90;13.90;;;;;;;;;;5108159;28;20475;-67
2024/02/08 03:54:31;;;;;;;23.53;14.10;;;;;;;;;;5111032;28;20514;-66
2024/02/08 03:56:59;;;;;;;21.17;13.67;;;;;;;;;;5113423;28;20506;-65
2024/02/08 03:59:27;;;;;;;22.13;14.37;;;;;;;;;;5119981;28;20454;-65
2024/02/08 04:02:03;;;;;;;23.07;12.60;;;;;;;;;;5101509;28;20452;-66
2024/02/08 04:04:35;;;;;;;16.57;13.00;;;;;;;;;;5114549;28;21167;-64
2024/02/08 04:07:19;;;;;;;22.43;13.23;;;;;;;;;;5114869;28;20454;-66
2024/02/08 04:09:48;;;;;;;31.13;14.30;;;;;;;;;;5115610;28;20438;-67
2024/02/08 04:53:40;;;;;;;25.17;14.10;;;;;;;;;;5122241;27;20444;-65
2024/02/08 04:56:18;;;;;;;33.37;15.50;;;;;;;;;;5129298;27;20455;-67
2024/02/08 04:58:45;;;;;;;22.80;15.70;;;;;;;;;;5117955;27;20445;-67
2024/02/08 05:01:11;;;;;;;21.20;14.07;;;;;;;;;;5113380;27;20460;-63
2024/02/08 05:03:39;;;;;;;21.47;14.57;;;;;;;;;;5114118;27;20477;-66
2024/02/08 05:06:10;;;;;;;21.00;13.37;;;;;;;;;;5115735;28;20482;-66
2024/02/08 05:08:38;;;;;;;16.70;13.33;;;;;;;;;;5114991;28;20451;-64
2024/02/08 05:11:09;;;;;;;22.00;13.80;;;;;;;;;;5113796;27;20934;-67
2024/02/08 05:13:43;;;;;;;22.07;14.30;;;;;;;;;;5115903;27;20454;-66
2024/02/08 05:16:14;;;;;;;20.97;13.87;;;;;;;;;;5116012;27;20451;-64
2024/02/08 05:18:41;;;;;;;24.33;15.83;;;;;;;;;;5115643;28;20447;-65
2024/02/08 05:21:08;;;;;;;18.67;14.47;;;;;;;;;;5117592;27;20450;-65
2024/02/08 05:23:38;;;;;;;19.33;14.13;;;;;;;;;;5115919;27;20457;-65
2024/02/08 05:26:05;;;;;;;20.93;14.20;;;;;;;;;;5123794;27;20446;-67
2024/02/08 05:28:33;;;;;;;26.63;16.47;;;;;;;;;;5116384;28;20523;-66
2024/02/08 05:31:01;;;;;;;22.40;14.83;;;;;;;;;;5113255;28;20447;-63
2024/02/08 05:33:29;;;;;;;21.30;14.50;;;;;;;;;;5111402;27;20443;-64
2024/02/08 05:35:57;;;;;;;23.90;16.47;;;;;;;;;;5111982;28;20489;-64
2024/02/08 05:38:23;;;;;;;25.20;14.60;;;;;;;;;;5112189;28;20466;-66
2024/02/08 05:40:51;;;;;;;22.33;14.83;;;;;;;;;;5118196;28;20907;-66
2024/02/08 05:43:18;;;;;;;26.63;17.50;;;;;;;;;;5120605;27;20454;-67
2024/02/08 05:45:45;;;;;;;24.47;16.30;;;;;;;;;;5111382;27;20454;-65
2024/02/08 05:48:17;;;;;;;21.73;15.17;;;;;;;;;;5114593;27;20478;-65
2024/02/08 05:50:44;;;;;;;19.87;14.53;;;;;;;;;;5113756;28;20488;-66
2024/02/08 05:53:15;;;;;;;26.57;17.10;;;;;;;;;;5112502;27;20455;-66
2024/02/08 05:55:48;;;;;;;25.60;16.40;;;;;;;;;;5112358;28;20743;-64
2024/02/08 05:58:18;;;;;;;26.13;15.73;;;;;;;;;;5117580;28;20442;-64
2024/02/08 06:00:52;;;;;;;23.03;17.00;;;;;;;;;;5108585;28;20466;-64
2024/02/08 06:03:27;;;;;;;27.17;18.30;;;;;;;;;;5115502;27;20486;-67
2024/02/08 06:06:06;;;;;;;23.03;16.40;;;;;;;;;;5117172;28;20457;-70
2024/02/08 06:08:39;;;;;;;29.93;17.43;;;;;;;;;;5115881;28;20467;-67
2024/02/08 06:11:08;;;;;;;24.30;16.00;;;;;;;;;;5101031;28;20458;-67
2024/02/08 06:13:37;;;;;;;26.10;16.83;;;;;;;;;;5102404;28;20447;-66
2024/02/08 06:16:14;;;;;;;33.90;16.33;;;;;;;;;;5112487;27;20583;-65
2024/02/08 06:18:45;;;;;;;34.40;17.20;;;;;;;;;;5113968;27;20449;-67
2024/02/08 06:21:13;;;;;;;28.27;17.07;;;;;;;;;;5114987;27;20458;-66
2024/02/08 06:23:43;;;;;;;23.37;16.90;;;;;;;;;;5115622;27;20480;-68
2024/02/08 06:26:28;;;;;;;25.70;18.57;;;;;;;;;;5119805;27;20469;-67
2024/02/08 06:28:54;;;;;;;27.93;16.53;;;;;;;;;;5115674;28;20957;-67
2024/02/08 06:31:29;;;;;;;22.37;15.93;;;;;;;;;;5112067;28;20459;-66
2024/02/08 06:34:40;;;;;;;33.30;17.17;;;;;;;;;;5107585;28;20721;-68
2024/02/08 06:37:15;;;;;;;29.80;18.17;;;;;;;;;;5110640;28;20458;-68
2024/02/08 06:39:44;;;;;;;25.73;16.50;;;;;;;;;;5113520;28;20484;-66
2024/02/08 06:42:29;;;;;;;30.77;17.50;;;;;;;;;;5115523;28;20964;-67
2024/02/08 06:45:24;;;;;;;30.60;18.07;;;;;;;;;;5113123;28;20506;-65
2024/02/08 06:48:14;;;;;;;33.27;17.43;;;;;;;;;;5115792;28;20430;-68
2024/02/08 07:37:25;;;;;;;30.20;20.10;;;;;;;;;;5101330;28;20453;-66
2024/02/08 07:40:00;;;;;;;36.67;20.63;;;;;;;;;;5104291;28;20939;-65
2024/02/08 07:42:32;;;;;;;31.13;18.40;;;;;;;;;;5097258;28;20451;-68
2024/02/08 07:44:57;;;;;;;33.37;20.40;;;;;;;;;;5097395;28;20447;-66
2024/02/08 07:47:25;;;;;;;35.23;20.07;;;;;;;;;;5106120;28;20504;-68
2024/02/08 07:49:57;;;;;;;41.17;21.33;;;;;;;;;;5108099;28;20205;-65
2024/02/08 07:52:24;;;;;;;39.07;23.20;;;;;;;;;;5108610;28;20465;-67
2024/02/08 07:54:56;;;;;;;39.90;20.50;;;;;;;;;;5106655;28;20502;-63
2024/02/08 07:57:26;;;;;;;42.17;22.37;;;;;;;;;;5109868;28;20986;-64
2024/02/08 07:59:53;;;;;;;38.73;20.60;;;;;;;;;;5108741;28;20465;-66
2024/02/08 08:02:23;;;;;;;37.50;20.60;;;;;;;;;;5108812;28;20515;-66
2024/02/08 08:04:53;;;;;;;34.10;19.60;;;;;;;;;;5106868;28;20803;-67
2024/02/08 08:07:23;;;;;;;37.13;20.40;;;;;;;;;;5106142;28;20482;-67
2024/02/08 08:09:55;;;;;;;47.17;23.07;;;;;;;;;;5115616;28;20462;-66
2024/02/08 08:12:22;;;;;;;50.23;22.93;;;;;;;;;;5101390;28;20451;-68
2024/02/08 08:17:40;;;;;;;43.40;23.07;;;;;;;;;;5104770;28;20457;-66
2024/02/08 08:20:15;;;;;;;42.87;23.53;;;;;;;;;;5109898;28;20463;-67
2024/02/08 08:22:50;;;;;;;43.87;23.53;;;;;;;;;;5104082;28;20565;-69
2024/02/08 08:25:29;;;;;;;40.23;22.60;;;;;;;;;;5102814;28;20492;-69
2024/02/08 08:30:38;;;;;;;48.87;23.67;;;;;;;;;;5115699;28;20438;-68
2024/02/08 08:33:08;;;;;;;57.20;24.50;;;;;;;;;;5105096;28;20922;-66
2024/02/08 08:35:45;;;;;;;49.83;23.67;;;;;;;;;;5109441;28;21040;-64
2024/02/08 08:38:28;;;;;;;57.90;24.93;;;;;;;;;;5103852;27;20470;-66
2024/02/08 08:41:06;;;;;;;45.63;23.97;;;;;;;;;;5087305;28;20443;-66
2024/02/08 08:43:35;;;;;;;50.33;25.40;;;;;;;;;;5085183;28;20451;-65
2024/02/08 08:46:09;;;;;;;50.83;23.23;;;;;;;;;;5093928;28;21023;-63
2024/02/08 08:48:36;;;;;;;45.10;24.00;;;;;;;;;;5094091;28;20508;-64
2024/02/08 08:51:10;;;;;;;46.93;24.23;;;;;;;;;;5092481;28;20451;-67
2024/02/08 08:53:43;;;;;;;46.57;23.30;;;;;;;;;;5088591;28;20557;-68
2024/02/08 08:56:10;;;;;;;48.07;24.73;;;;;;;;;;5086349;28;20502;-68
2024/02/08 08:58:39;;;;;;;43.80;23.47;;;;;;;;;;5091681;28;20447;-68
2024/02/08 09:01:18;;;;;;;48.03;24.80;;;;;;;;;;5093346;28;20482;-67
2024/02/08 09:03:44;;;;;;;44.53;24.10;;;;;;;;;;5085646;28;20941;-68
2024/02/08 09:06:13;;;;;;;48.40;23.23;;;;;;;;;;5088155;28;20951;-67
2024/02/08 09:08:44;;;;;;;45.43;22.77;;;;;;;;;;5081677;28;20507;-70
2024/02/08 09:11:12;;;;;;;42.53;22.77;;;;;;;;;;5091501;28;20455;-69
2024/02/08 09:13:42;;;;;;;51.23;23.87;;;;;;;;;;5095698;28;20524;-68
2024/02/08 09:19:04;;;;;;;41.17;23.10;;;;;;;;;;5087944;28;20520;-65
2024/02/08 09:21:32;;;;;;;43.33;22.93;;;;;;;;;;5095523;28;20455;-62
2024/02/08 09:24:02;;;;;;;37.23;20.97;;;;;;;;;;5095696;28;20446;-65
2024/02/08 09:26:46;;;;;;;40.60;20.37;;;;;;;;;;5089368;28;20459;-64
2024/02/08 09:29:12;;;;;;;38.60;21.13;;;;;;;;;;5081914;28;20473;-66
2024/02/08 09:31:43;;;;;;;39.33;20.47;;;;;;;;;;5091197;28;20447;-67
2024/02/08 09:34:15;;;;;;;41.57;22.03;;;;;;;;;;5090961;28;20466;-66
2024/02/08 09:36:43;;;;;;;35.20;20.47;;;;;;;;;;5087607;28;20490;-67
2024/02/08 09:39:15;;;;;;;41.73;20.20;;;;;;;;;;5090138;28;20483;-66
2024/02/08 09:41:44;;;;;;;40.10;22.73;;;;;;;;;;5101365;28;20485;-67
2024/02/08 09:44:11;;;;;;;34.53;20.20;;;;;;;;;;5101620;28;20494;-66
2024/02/08 09:49:34;;;;;;;32.73;19.30;;;;;;;;;;5110029;28;20455;-70
2024/02/08 09:52:14;;;;;;;30.87;17.70;;;;;;;;;;5110680;28;20455;-68
2024/02/08 09:54:46;;;;;;;26.73;16.77;;;;;;;;;;5105704;28;20479;-66
2024/02/08 09:57:21;;;;;;;34.50;20.60;;;;;;;;;;5109590;28;20459;-66
2024/02/08 10:00:06;;;;;;;29.13;17.97;;;;;;;;;;5111740;28;20816;-67
2024/02/08 10:02:33;;;;;;;31.27;17.60;;;;;;;;;;5102506;28;20450;-67
2024/02/08 10:05:18;;;;;;;32.37;20.70;;;;;;;;;;5102646;28;21272;-66
2024/02/08 10:08:02;;;;;;;33.33;17.57;;;;;;;;;;5106453;28;20443;-64
2024/02/08 10:10:33;;;;;;;30.77;17.30;;;;;;;;;;5113684;28;20461;-69
2024/02/08 10:13:05;;;;;;;29.20;15.67;;;;;;;;;;5109077;28;20454;-66
2024/02/08 10:15:44;;;;;;;29.23;17.53;;;;;;;;;;5101041;28;20471;-66
2024/02/08 10:18:13;;;;;;;28.47;16.17;;;;;;;;;;5099160;28;20458;-66
2024/02/08 10:20:48;;;;;;;26.13;15.60;;;;;;;;;;5104450;28;20454;-67
2024/02/08 10:28:41;;;;;;;28.17;17.20;;;;;;;;;;5107147;28;20438;-68
2024/02/08 10:31:12;;;;;;;30.27;14.93;;;;;;;;;;5105295;28;20455;-65
2024/02/08 10:33:48;;;;;;;26.33;16.17;;;;;;;;;;5110469;28;20451;-64
2024/02/08 10:36:18;;;;;;;26.60;17.17;;;;;;;;;;5102942;28;20479;-66
2024/02/08 10:38:55;;;;;;;23.60;14.63;;;;;;;;;;5107080;28;21082;-65
2024/02/08 10:41:28;;;;;;;25.10;15.20;;;;;;;;;;5107977;28;20483;-66
2024/02/08 10:43:57;;;;;;;23.87;13.80;;;;;;;;;;5104138;28;20463;-71
2024/02/08 10:46:31;;;;;;;28.13;14.07;;;;;;;;;;5114585;28;20460;-69
2024/02/08 10:49:00;;;;;;;25.20;14.37;;;;;;;;;;5106601;28;20541;-69
2024/02/08 10:51:27;;;;;;;26.40;14.67;;;;;;;;;;5107961;28;21251;-67
2024/02/08 10:54:05;;;;;;;19.80;14.33;;;;;;;;;;5113632;28;20458;-67
2024/02/08 10:56:40;;;;;;;26.00;13.57;;;;;;;;;;5101522;28;20490;-65
2024/02/08 10:59:14;;;;;;;21.13;13.37;;;;;;;;;;5110511;28;20939;-66
2024/02/08 11:02:00;;;;;;;22.10;12.17;;;;;;;;;;5109155;28;20458;-67
2024/02/08 11:04:30;;;;;;;22.80;12.33;;;;;;;;;;5110107;28;20452;-66
2024/02/08 11:07:06;;;;;;;20.03;12.70;;;;;;;;;;5115664;28;20446;-67
2024/02/08 11:09:33;;;;;;;19.07;12.20;;;;;;;;;;5098973;28;20482;-67
2024/02/08 11:12:03;;;;;;;21.87;11.40;;;;;;;;;;5105845;28;20504;-63
2024/02/08 11:14:34;;;;;;;25.53;14.90;;;;;;;;;;5108836;28;20451;-64
2024/02/08 11:17:04;;;;;;;17.97;11.37;;;;;;;;;;5099741;28;20509;-60
2024/02/08 11:19:35;;;;;;;18.50;11.80;;;;;;;;;;5108054;28;20446;-64
2024/02/08 11:22:34;;;;;;;18.70;12.00;;;;;;;;;;5101699;28;20451;-64
2024/02/08 11:25:18;;;;;;;21.63;11.93;;;;;;;;;;5113990;28;20448;-61
2024/02/08 11:27:47;;;;;;;19.80;11.50;;;;;;;;;;5115527;28;20453;-64
2024/02/08 11:30:19;;;;;;;19.10;10.67;;;;;;;;;;5111820;28;20438;-64
2024/02/08 11:32:56;;;;;;;23.93;12.20;;;;;;;;;;5112368;28;20452;-61
2024/02/08 11:35:30;;;;;;;18.07;12.13;;;;;;;;;;5112804;28;20454;-62
2024/02/08 11:37:56;;;;;;;13.57;11.10;;;;;;;;;;5114343;28;20462;-64
2024/02/08 11:40:28;;;;;;;21.40;11.20;;;;;;;;;;5097232;28;20478;-61
2024/02/08 11:42:59;;;;;;;18.97;11.30;;;;;;;;;;5093385;28;20465;-63
2024/02/08 11:45:27;;;;;;;18.03;10.90;;;;;;;;;;5093750;28;20439;-63
2024/02/08 11:47:55;;;;;;;17.70;12.33;;;;;;;;;;5090051;28;20459;-64
2024/02/08 11:50:24;;;;;;;16.40;11.13;;;;;;;;;;5092728;28;20524;-63
2024/02/08 11:53:04;;;;;;;21.17;11.87;;;;;;;;;;5093587;28;20452;-63
2024/02/08 11:55:32;;;;;;;17.27;12.53;;;;;;;;;;5093589;28;21021;-64
2024/02/08 11:57:59;;;;;;;17.73;12.17;;;;;;;;;;5089713;28;20463;-63
2024/02/08 12:00:25;;;;;;;17.87;11.20;;;;;;;;;;5091042;28;20481;-65
2024/02/08 12:02:57;;;;;;;23.20;11.77;;;;;;;;;;5092795;28;20478;-62
2024/02/08 12:05:24;;;;;;;21.90;10.67;;;;;;;;;;5090880;28;20450;-63
2024/02/08 12:07:50;;;;;;;19.97;10.27;;;;;;;;;;5091423;28;20874;-65
2024/02/08 12:10:22;;;;;;;17.37;10.70;;;;;;;;;;5092502;28;20478;-65
2024/02/08 12:12:52;;;;;;;14.70;10.30;;;;;;;;;;5096118;28;20516;-64
2024/02/08 12:15:21;;;;;;;14.77;10.57;;;;;;;;;;5099451;28;20478;-65
2024/02/08 12:17:48;;;;;;;14.90;9.87;;;;;;;;;;5097872;28;20497;-63
2024/02/08 12:20:16;;;;;;;12.97;9.07;;;;;;;;;;5097795;28;20450;-63
2024/02/08 12:22:43;;;;;;;12.47;9.90;;;;;;;;;;5094008;28;20543;-63
2024/02/08 12:25:15;;;;;;;16.00;10.00;;;;;;;;;;5093566;28;20520;-65
2024/02/08 12:27:48;;;;;;;12.77;9.43;;;;;;;;;;5085073;28;20533;-64
2024/02/08 12:30:16;;;;;;;14.43;10.40;;;;;;;;;;5086791;28;20464;-68
2024/02/08 12:32:44;;;;;;;15.10;10.20;;;;;;;;;;5093620;28;20479;-62
2024/02/08 12:35:13;;;;;;;13.47;9.80;;;;;;;;;;5096763;28;20443;-67
2024/02/08 12:37:41;;;;;;;14.93;10.27;;;;;;;;;;5096692;28;20483;-62
2024/02/08 12:40:12;;;;;;;11.80;9.60;;;;;;;;;;5107693;28;20497;-61
2024/02/08 12:42:39;;;;;;;12.87;9.47;;;;;;;;;;5120468;28;20460;-58
2024/02/08 12:45:10;;;;;;;14.13;9.17;;;;;;;;;;5113149;28;20443;-59
2024/02/08 12:47:38;;;;;;;14.40;8.80;;;;;;;;;;5114925;28;20449;-61
2024/02/08 12:50:09;;;;;;;13.47;10.47;;;;;;;;;;5114841;28;20449;-61
2024/02/08 12:52:36;;;;;;;15.20;10.70;;;;;;;;;;5117578;28;20446;-61
2024/02/08 12:55:02;;;;;;;13.23;10.47;;;;;;;;;;5112277;28;20523;-60
2024/02/08 12:57:29;;;;;;;12.40;9.80;;;;;;;;;;5115328;28;20485;-62
2024/02/08 13:00:02;;;;;;;12.90;10.83;;;;;;;;;;5115896;28;20446;-61
2024/02/08 13:02:33;;;;;;;12.50;8.60;;;;;;;;;;5113671;28;20454;-59
2024/02/08 13:05:01;;;;;;;10.63;8.97;;;;;;;;;;5110856;28;20458;-58
2024/02/08 13:07:28;;;;;;;13.33;9.70;;;;;;;;;;5114787;28;20447;-62
2024/02/08 13:10:01;;;;;;;16.23;10.10;;;;;;;;;;5117292;28;20507;-60
2024/02/08 13:12:28;;;;;;;15.77;9.27;;;;;;;;;;5104344;28;20451;-61
2024/02/08 13:15:02;;;;;;;18.97;11.00;;;;;;;;;;5104775;28;20486;-61
2024/02/08 13:17:33;;;;;;;16.30;9.70;;;;;;;;;;5112725;28;20542;-63
2024/02/08 13:19:59;;;;;;;13.97;9.50;;;;;;;;;;5107938;28;20510;-59
2024/02/08 13:22:30;;;;;;;18.67;8.70;;;;;;;;;;5115580;28;20450;-59
2024/02/08 13:24:57;;;;;;;18.07;8.77;;;;;;;;;;5106958;28;20461;-58
2024/02/08 13:27:25;;;;;;;9.17;6.97;;;;;;;;;;5114888;28;20443;-64
2024/02/08 13:29:52;;;;;;;13.70;7.70;;;;;;;;;;5102967;28;20968;-67
2024/02/08 13:32:24;;;;;;;11.40;6.73;;;;;;;;;;5109255;28;20477;-62
2024/02/08 13:34:52;;;;;;;12.83;8.90;;;;;;;;;;5107309;28;20458;-62
2024/02/08 13:37:19;;;;;;;15.63;7.50;;;;;;;;;;5106612;28;20909;-63
2024/02/08 13:39:46;;;;;;;13.83;7.13;;;;;;;;;;5110279;28;20501;-62
2024/02/08 13:42:15;;;;;;;14.77;7.83;;;;;;;;;;5118046;28;20514;-63
2024/02/08 13:44:44;;;;;;;9.83;5.80;;;;;;;;;;5124455;27;20443;-72
2024/02/08 13:47:11;;;;;;;8.30;6.43;;;;;;;;;;5116455;27;20541;-62
2024/02/08 13:49:38;;;;;;;35.73;18.30;;;;;;;;;;5120443;27;20463;-61
2024/02/08 13:52:06;;;;;;;10.27;6.23;;;;;;;;;;5118299;28;20454;-70
2024/02/08 13:54:37;;;;;;;17.80;7.90;;;;;;;;;;5109534;28;20538;-71
2024/02/08 13:57:12;;;;;;;59.50;27.40;;;;;;;;;;5108306;28;20528;-63
2024/02/08 13:59:44;;;;;;;21.00;12.13;;;;;;;;;;5109193;28;20446;-63
2024/02/08 14:02:12;;;;;;;31.60;12.23;;;;;;;;;;5125104;27;20476;-61
2024/02/08 14:04:39;;;;;;;19.73;11.03;;;;;;;;;;5109407;28;20492;-62
2024/02/08 14:07:11;;;;;;;16.63;8.63;;;;;;;;;;5115024;27;20489;-61
2024/02/08 14:09:40;;;;;;;22.30;8.70;;;;;;;;;;5110856;27;20473;-61
2024/02/08 14:12:08;;;;;;;16.73;8.73;;;;;;;;;;5111065;27;20549;-62
2024/02/08 14:14:41;;;;;;;18.83;9.33;;;;;;;;;;5109610;28;20453;-62
2024/02/08 14:17:10;;;;;;;18.40;10.10;;;;;;;;;;5115860;27;20737;-62
2024/02/08 14:19:37;;;;;;;12.50;7.70;;;;;;;;;;5110627;28;20466;-62
2024/02/08 14:22:06;;;;;;;15.13;7.83;;;;;;;;;;5112916;27;20476;-62
2024/02/08 14:24:38;;;;;;;15.07;8.40;;;;;;;;;;5114583;28;20458;-69
2024/02/08 14:27:06;;;;;;;17.20;9.33;;;;;;;;;;5117483;27;20458;-64
2024/02/08 14:29:35;;;;;;;13.03;7.90;;;;;;;;;;5117678;28;20541;-67
2024/02/08 14:32:04;;;;;;;14.67;8.40;;;;;;;;;;5118034;27;20460;-66
2024/02/08 14:34:31;;;;;;;17.13;7.97;;;;;;;;;;5109775;28;20942;-64
2024/02/08 14:36:57;;;;;;;11.57;6.73;;;;;;;;;;5108228;28;20505;-65
2024/02/08 14:39:39;;;;;;;10.63;6.47;;;;;;;;;;5101571;28;20494;-65
2024/02/08 14:42:11;;;;;;;12.83;6.33;;;;;;;;;;5116540;27;20450;-67
2024/02/08 14:47:21;;;;;;;12.53;5.90;;;;;;;;;;5116659;27;20457;-67
2024/02/08 14:49:59;;;;;;;8.87;5.43;;;;;;;;;;5117436;28;20481;-64
2024/02/08 14:52:26;;;;;;;11.40;6.90;;;;;;;;;;5110341;28;20447;-66
2024/02/08 14:54:58;;;;;;;11.10;6.63;;;;;;;;;;5108690;28;20466;-66
2024/02/08 14:57:26;;;;;;;17.50;9.10;;;;;;;;;;5105822;28;20484;-67
2024/02/08 15:00:28;;;;;;;28.10;17.03;;;;;;;;;;5109206;28;20455;-65
2024/02/08 15:02:43;;;;;;;20.53;10.30;;;;;;;;;;5107871;28;20449;-64
2024/02/08 15:05:12;;;;;;;17.23;10.30;;;;;;;;;;5110274;28;20458;-65
2024/02/08 15:07:51;;;;;;;15.53;9.13;;;;;;;;;;5113072;27;20454;-69
2024/02/08 15:10:20;;;;;;;53.77;21.23;;;;;;;;;;5110782;28;20463;-67
2024/02/08 15:12:56;;;;;;;24.07;12.20;;;;;;;;;;5105132;28;20471;-66
2024/02/08 15:15:29;;;;;;;19.03;9.07;;;;;;;;;;5109667;27;20449;-64
2024/02/08 15:18:10;;;;;;;28.43;13.50;;;;;;;;;;5108246;27;20530;-65
2024/02/08 15:20:43;;;;;;;19.60;11.80;;;;;;;;;;5120702;27;20480;-66
2024/02/08 15:23:11;;;;;;;19.77;9.77;;;;;;;;;;5112003;28;20832;-62
2024/02/08 15:25:44;;;;;;;17.53;10.17;;;;;;;;;;5103284;28;20938;-59
2024/02/08 15:28:34;;;;;;;14.80;9.47;;;;;;;;;;5117629;28;20454;-59
2024/02/08 15:31:15;;;;;;;15.73;7.80;;;;;;;;;;5115087;28;20450;-59
2024/02/08 15:33:57;;;;;;;14.37;8.50;;;;;;;;;;5108624;28;20466;-62
2024/02/08 15:36:32;;;;;;;11.23;7.33;;;;;;;;;;5113270;28;20976;-58
2024/02/08 15:39:01;;;;;;;19.40;9.43;;;;;;;;;;5120216;28;20483;-62
2024/02/08 15:41:41;;;;;;;11.63;5.97;;;;;;;;;;5109399;28;20455;-61
2024/02/08 15:44:14;;;;;;;11.33;6.63;;;;;;;;;;5105581;28;20454;-58
2024/02/08 15:46:41;;;;;;;10.27;6.57;;;;;;;;;;5108375;28;20445;-60
2024/02/08 15:49:14;;;;;;;13.30;6.57;;;;;;;;;;5122793;27;20450;-70
2024/02/08 15:51:41;;;;;;;28.23;10.60;;;;;;;;;;5117027;27;20702;-70
2024/02/08 15:54:21;;;;;;;14.87;8.50;;;;;;;;;;5109612;27;20481;-68
2024/02/08 15:56:53;;;;;;;12.97;6.87;;;;;;;;;;5119102;27;20478;-60
2024/02/08 15:59:23;;;;;;;8.83;6.40;;;;;;;;;;5114256;28;20450;-64
2024/02/08 16:01:50;;;;;;;14.17;5.40;;;;;;;;;;5111578;28;20538;-64
2024/02/08 16:04:44;;;;;;;9.80;5.63;;;;;;;;;;5113806;28;20451;-60
2024/02/08 16:07:14;;;;;;;9.43;6.90;;;;;;;;;;5117676;27;20458;-67
2024/02/08 16:09:40;;;;;;;12.47;6.70;;;;;;;;;;5116228;28;20554;-70
2024/02/08 16:12:22;;;;;;;12.87;6.77;;;;;;;;;;5112337;28;20462;-72
2024/02/08 16:14:59;;;;;;;8.77;6.00;;;;;;;;;;5117170;27;20232;-66
2024/02/08 16:17:39;;;;;;;10.47;6.83;;;;;;;;;;5112564;27;20845;-66
2024/02/08 16:20:08;;;;;;;10.80;6.13;;;;;;;;;;5118009;28;20450;-65
2024/02/08 16:22:47;;;;;;;10.70;6.93;;;;;;;;;;5105222;28;20526;-65
2024/02/08 16:25:16;;;;;;;10.00;6.60;;;;;;;;;;5111529;28;20454;-63
2024/02/08 16:27:48;;;;;;;11.00;7.00;;;;;;;;;;5113721;28;20439;-66